createdAt,value
2018-05-12T00:00:50.177Z,956.87
2018-05-12T00:01:50.201Z,956.84
2018-05-12T00:02:50.225Z,956.85
2018-05-12T00:03:50.245Z,956.84
2018-05-12T00:04:50.270Z,956.83
2018-05-12T00:05:50.299Z,956.83
2018-05-12T00:06:50.317Z,956.8
2018-05-12T00:07:50.340Z,956.79
2018-05-12T00:08:50.365Z,956.76
2018-05-12T00:09:50.391Z,956.78
2018-05-12T00:10:50.415Z,956.75
2018-05-12T00:11:50.440Z,956.78
2018-05-12T00:12:50.465Z,956.74
2018-05-12T00:13:50.486Z,956.7
2018-05-12T00:14:50.512Z,956.71
2018-05-12T00:15:50.535Z,956.71
2018-05-12T00:16:50.563Z,956.71
2018-05-12T00:17:50.582Z,956.7
2018-05-12T00:18:50.606Z,956.7
2018-05-12T00:19:50.632Z,956.71
2018-05-12T00:20:50.653Z,956.69
2018-05-12T00:21:50.677Z,956.7
2018-05-12T00:22:50.705Z,956.68
2018-05-12T00:23:50.723Z,956.72
2018-05-12T00:24:50.750Z,956.67
2018-05-12T00:25:50.772Z,956.65
2018-05-12T00:26:50.796Z,956.67
2018-05-12T00:27:50.819Z,956.66
2018-05-12T00:28:50.895Z,956.64
2018-05-12T00:29:50.867Z,956.63
2018-05-12T00:30:50.889Z,956.62
2018-05-12T00:31:50.914Z,956.66
2018-05-12T00:32:50.935Z,956.62
2018-05-12T00:33:50.959Z,956.64
2018-05-12T00:34:50.985Z,956.64
2018-05-12T00:35:51.006Z,956.62
2018-05-12T00:36:51.030Z,956.65
2018-05-12T00:37:51.055Z,956.64
2018-05-12T00:38:51.078Z,956.63
2018-05-12T00:39:51.098Z,956.63
2018-05-12T00:40:51.126Z,956.62
2018-05-12T00:41:51.153Z,956.64
2018-05-12T00:42:51.239Z,956.62
2018-05-12T00:43:51.197Z,956.63
2018-05-12T00:44:51.220Z,956.65
2018-05-12T00:45:51.241Z,956.63
2018-05-12T00:46:51.267Z,956.64
2018-05-12T00:47:51.291Z,956.64
2018-05-12T00:48:51.315Z,956.64
2018-05-12T00:49:51.337Z,956.61
2018-05-12T00:50:51.361Z,956.63
2018-05-12T00:51:51.384Z,956.62
2018-05-12T00:52:51.409Z,956.6
2018-05-12T00:53:51.431Z,956.58
2018-05-12T00:54:51.456Z,956.59
2018-05-12T00:55:51.479Z,956.63
2018-05-12T00:56:51.501Z,956.6
2018-05-12T00:57:51.525Z,956.59
2018-05-12T00:58:51.548Z,956.63
2018-05-12T00:59:51.572Z,956.61
2018-05-12T01:00:51.593Z,956.59
2018-05-12T01:01:51.621Z,956.58
2018-05-12T01:02:51.640Z,956.58
2018-05-12T01:03:51.665Z,956.6
2018-05-12T01:04:51.738Z,956.6
2018-05-12T01:05:51.710Z,956.57
2018-05-12T01:06:51.733Z,956.59
2018-05-12T01:07:51.756Z,956.58
2018-05-12T01:08:51.779Z,956.63
2018-05-12T01:09:51.805Z,956.63
2018-05-12T01:10:51.826Z,956.63
2018-05-12T01:11:51.851Z,956.62
2018-05-12T01:12:51.873Z,956.61
2018-05-12T01:13:51.901Z,956.59
2018-05-12T01:14:51.921Z,956.56
2018-05-12T01:15:51.943Z,956.57
2018-05-12T01:16:51.966Z,956.58
2018-05-12T01:17:51.989Z,956.58
2018-05-12T01:18:52.012Z,956.57
2018-05-12T01:19:52.086Z,956.53
2018-05-12T01:20:52.059Z,956.55
2018-05-12T01:21:52.083Z,956.51
2018-05-12T01:22:52.105Z,956.51
2018-05-12T01:23:52.129Z,956.5
2018-05-12T01:24:53.254Z,956.5
2018-05-12T01:25:52.176Z,956.51
2018-05-12T01:26:52.201Z,956.47
2018-05-12T01:27:52.223Z,956.49
2018-05-12T01:28:52.246Z,956.48
2018-05-12T01:29:52.270Z,956.44
2018-05-12T01:30:52.293Z,956.49
2018-05-12T01:31:52.321Z,956.51
2018-05-12T01:32:52.342Z,956.47
2018-05-12T01:33:52.364Z,956.46
2018-05-12T01:34:52.386Z,956.47
2018-05-12T01:35:52.413Z,956.49
2018-05-12T01:36:52.434Z,956.54
2018-05-12T01:37:52.455Z,956.52
2018-05-12T01:38:52.480Z,956.56
2018-05-12T01:39:52.504Z,956.57
2018-05-12T01:40:52.525Z,956.54
2018-05-12T01:41:52.549Z,956.55
2018-05-12T01:42:52.611Z,956.57
2018-05-12T01:43:52.596Z,956.54
2018-05-12T01:44:52.622Z,956.56
2018-05-12T01:45:52.643Z,956.54
2018-05-12T01:46:52.664Z,956.53
2018-05-12T01:47:52.689Z,956.56
2018-05-12T01:48:52.711Z,956.57
2018-05-12T01:49:52.735Z,956.52
2018-05-12T01:50:52.758Z,956.57
2018-05-12T01:51:52.780Z,956.52
2018-05-12T01:52:52.804Z,956.53
2018-05-12T01:53:52.827Z,956.54
2018-05-12T01:54:52.852Z,956.56
2018-05-12T01:55:52.873Z,956.52
2018-05-12T01:56:52.897Z,956.52
2018-05-12T01:57:52.919Z,956.48
2018-05-12T01:58:52.941Z,956.5
2018-05-12T01:59:52.967Z,956.5
2018-05-12T02:00:52.990Z,956.52
2018-05-12T02:01:53.013Z,956.5
2018-05-12T02:02:53.035Z,956.51
2018-05-12T02:03:53.059Z,956.52
2018-05-12T02:04:53.082Z,956.55
2018-05-12T02:05:53.106Z,956.55
2018-05-12T02:06:53.128Z,956.53
2018-05-12T02:07:53.149Z,956.56
2018-05-12T02:08:53.174Z,956.56
2018-05-12T02:09:53.197Z,956.53
2018-05-12T02:10:53.220Z,956.54
2018-05-12T02:11:53.242Z,956.59
2018-05-12T02:12:53.270Z,956.56
2018-05-12T02:13:53.287Z,956.55
2018-05-12T02:14:53.312Z,956.57
2018-05-12T02:15:53.341Z,956.58
2018-05-12T02:16:53.358Z,956.55
2018-05-12T02:17:53.384Z,956.53
2018-05-12T02:18:53.404Z,956.57
2018-05-12T02:19:53.428Z,956.54
2018-05-12T02:20:53.458Z,956.54
2018-05-12T02:21:53.474Z,956.54
2018-05-12T02:22:53.498Z,956.52
2018-05-12T02:23:53.521Z,956.55
2018-05-12T02:24:53.542Z,956.52
2018-05-12T02:25:53.566Z,956.49
2018-05-12T02:26:53.590Z,956.51
2018-05-12T02:27:53.613Z,956.5
2018-05-12T02:28:53.635Z,956.51
2018-05-12T02:29:53.659Z,956.49
2018-05-12T02:30:53.686Z,956.51
2018-05-12T02:31:53.705Z,956.48
2018-05-12T02:32:53.728Z,956.48
2018-05-12T02:33:53.752Z,956.49
2018-05-12T02:34:53.774Z,956.47
2018-05-12T02:35:53.803Z,956.48
2018-05-12T02:36:53.820Z,956.48
2018-05-12T02:37:53.843Z,956.48
2018-05-12T02:38:53.867Z,956.46
2018-05-12T02:39:53.894Z,956.47
2018-05-12T02:40:53.911Z,956.48
2018-05-12T02:41:53.933Z,956.44
2018-05-12T02:42:53.956Z,956.42
2018-05-12T02:43:53.986Z,956.41
2018-05-12T02:44:54.004Z,956.38
2018-05-12T02:45:54.027Z,956.4
2018-05-12T02:46:54.061Z,956.37
2018-05-12T02:47:54.071Z,956.38
2018-05-12T02:48:54.097Z,956.42
2018-05-12T02:49:54.120Z,956.42
2018-05-12T02:50:54.141Z,956.4
2018-05-12T02:51:54.164Z,956.39
2018-05-12T02:52:54.187Z,956.4
2018-05-12T02:53:54.210Z,956.4
2018-05-12T02:54:54.233Z,956.42
2018-05-12T02:55:54.254Z,956.36
2018-05-12T02:56:54.279Z,956.39
2018-05-12T02:57:54.301Z,956.39
2018-05-12T02:58:54.336Z,956.39
2018-05-12T02:59:54.347Z,956.38
2018-05-12T03:00:54.370Z,956.38
2018-05-12T03:01:54.392Z,956.38
2018-05-12T03:02:54.418Z,956.38
2018-05-12T03:03:54.439Z,956.36
2018-05-12T03:04:54.460Z,956.38
2018-05-12T03:05:54.484Z,956.41
2018-05-12T03:06:54.526Z,956.41
2018-05-12T03:07:54.531Z,956.39
2018-05-12T03:08:54.557Z,956.42
2018-05-12T03:09:54.575Z,956.41
2018-05-12T03:10:54.599Z,956.4
2018-05-12T03:11:54.622Z,956.41
2018-05-12T03:12:54.649Z,956.42
2018-05-12T03:13:54.669Z,956.42
2018-05-12T03:14:54.692Z,956.41
2018-05-12T03:15:54.713Z,956.47
2018-05-12T03:16:54.736Z,956.49
2018-05-12T03:17:54.780Z,956.47
2018-05-12T03:18:54.782Z,956.41
2018-05-12T03:19:54.803Z,956.49
2018-05-12T03:20:54.837Z,956.49
2018-05-12T03:21:54.851Z,956.47
2018-05-12T03:22:54.878Z,956.46
2018-05-12T03:23:54.897Z,956.49
2018-05-12T03:24:54.929Z,956.5
2018-05-12T03:25:54.943Z,956.49
2018-05-12T03:26:54.965Z,956.5
2018-05-12T03:27:54.988Z,956.45
2018-05-12T03:28:55.012Z,956.49
2018-05-12T03:29:55.035Z,956.49
2018-05-12T03:30:55.060Z,956.47
2018-05-12T03:31:55.080Z,956.5
2018-05-12T03:32:55.104Z,956.49
2018-05-12T03:33:55.124Z,956.48
2018-05-12T03:34:55.147Z,956.48
2018-05-12T03:35:55.172Z,956.52
2018-05-12T03:36:55.195Z,956.49
2018-05-12T03:37:55.217Z,956.52
2018-05-12T03:38:55.238Z,956.54
2018-05-12T03:39:55.264Z,956.53
2018-05-12T03:40:55.286Z,956.54
2018-05-12T03:41:55.308Z,956.53
2018-05-12T03:42:55.329Z,956.54
2018-05-12T03:43:55.351Z,956.51
2018-05-12T03:44:55.374Z,956.55
2018-05-12T03:45:55.397Z,956.57
2018-05-12T03:46:55.421Z,956.57
2018-05-12T03:47:55.444Z,956.54
2018-05-12T03:48:55.467Z,956.54
2018-05-12T03:49:55.489Z,956.53
2018-05-12T03:50:55.513Z,956.53
2018-05-12T03:51:55.536Z,956.55
2018-05-12T03:52:55.558Z,956.58
2018-05-12T03:53:55.581Z,956.59
2018-05-12T03:54:55.606Z,956.58
2018-05-12T03:55:55.633Z,956.58
2018-05-12T03:56:55.660Z,956.59
2018-05-12T03:57:55.675Z,956.62
2018-05-12T03:58:55.702Z,956.63
2018-05-12T03:59:55.747Z,956.6
2018-05-12T04:00:55.742Z,956.59
2018-05-12T04:01:55.764Z,956.61
2018-05-12T04:02:55.789Z,956.56
2018-05-12T04:03:55.818Z,956.57
2018-05-12T04:04:55.833Z,956.6
2018-05-12T04:05:55.857Z,956.62
2018-05-12T04:06:55.880Z,956.63
2018-05-12T04:07:55.903Z,956.61
2018-05-12T04:08:55.926Z,956.62
2018-05-12T04:09:55.952Z,956.67
2018-05-12T04:10:55.974Z,956.64
2018-05-12T04:11:55.999Z,956.65
2018-05-12T04:12:56.021Z,956.65
2018-05-12T04:13:56.045Z,956.65
2018-05-12T04:14:56.068Z,956.65
2018-05-12T04:15:56.091Z,956.67
2018-05-12T04:16:56.114Z,956.67
2018-05-12T04:17:56.137Z,956.69
2018-05-12T04:18:56.173Z,956.7
2018-05-12T04:19:56.186Z,956.71
2018-05-12T04:20:56.252Z,956.68
2018-05-12T04:21:56.231Z,956.7
2018-05-12T04:22:56.255Z,956.7
2018-05-12T04:23:56.279Z,956.72
2018-05-12T04:24:56.305Z,956.68
2018-05-12T04:25:56.324Z,956.71
2018-05-12T04:26:56.349Z,956.73
2018-05-12T04:27:56.369Z,956.75
2018-05-12T04:28:56.394Z,956.74
2018-05-12T04:29:56.418Z,956.74
2018-05-12T04:30:56.442Z,956.74
2018-05-12T04:31:56.467Z,956.76
2018-05-12T04:32:56.489Z,956.73
2018-05-12T04:33:56.513Z,956.71
2018-05-12T04:34:56.536Z,956.74
2018-05-12T04:35:56.561Z,956.74
2018-05-12T04:36:56.582Z,956.71
2018-05-12T04:37:56.605Z,956.76
2018-05-12T04:38:56.630Z,956.76
2018-05-12T04:39:56.657Z,956.7
2018-05-12T04:40:56.678Z,956.75
2018-05-12T04:41:56.702Z,956.77
2018-05-12T04:42:56.726Z,956.72
2018-05-12T04:43:56.748Z,956.79
2018-05-12T04:44:56.773Z,956.8
2018-05-12T04:45:56.796Z,956.81
2018-05-12T04:46:56.818Z,956.83
2018-05-12T04:47:56.842Z,956.85
2018-05-12T04:48:56.865Z,956.83
2018-05-12T04:49:56.891Z,956.84
2018-05-12T04:50:56.935Z,956.84
2018-05-12T04:51:56.937Z,956.9
2018-05-12T04:52:56.961Z,956.87
2018-05-12T04:53:56.989Z,956.85
2018-05-12T04:54:57.009Z,956.86
2018-05-12T04:55:57.033Z,956.82
2018-05-12T04:56:57.057Z,956.83
2018-05-12T04:57:57.080Z,956.84
2018-05-12T04:58:57.104Z,956.82
2018-05-12T04:59:57.137Z,956.81
2018-05-12T05:00:57.152Z,956.77
2018-05-12T05:01:57.175Z,956.79
2018-05-12T05:02:57.200Z,956.8
2018-05-12T05:03:57.224Z,956.82
2018-05-12T05:04:57.249Z,956.81
2018-05-12T05:05:57.270Z,956.82
2018-05-12T05:06:57.293Z,956.81
2018-05-12T05:07:57.318Z,956.78
2018-05-12T05:08:57.342Z,956.85
2018-05-12T05:09:57.364Z,956.84
2018-05-12T05:10:57.390Z,956.83
2018-05-12T05:11:57.497Z,956.82
2018-05-12T05:12:57.437Z,956.83
2018-05-12T05:13:57.460Z,956.84
2018-05-12T05:14:57.486Z,956.84
2018-05-12T05:15:57.508Z,956.83
2018-05-12T05:16:57.530Z,956.8
2018-05-12T05:17:57.555Z,956.81
2018-05-12T05:18:57.579Z,956.79
2018-05-12T05:19:57.601Z,956.75
2018-05-12T05:20:57.624Z,956.8
2018-05-12T05:21:57.656Z,956.8
2018-05-12T05:22:57.676Z,956.73
2018-05-12T05:23:57.699Z,956.7
2018-05-12T05:24:57.723Z,956.72
2018-05-12T05:25:57.750Z,956.71
2018-05-12T05:26:57.771Z,956.72
2018-05-12T05:27:57.794Z,956.69
2018-05-12T05:28:57.822Z,956.69
2018-05-12T05:29:57.854Z,956.71
2018-05-12T05:30:57.867Z,956.71
2018-05-12T05:31:57.887Z,956.72
2018-05-12T05:32:57.913Z,956.71
2018-05-12T05:33:57.934Z,956.72
2018-05-12T05:34:57.959Z,956.73
2018-05-12T05:35:57.983Z,956.71
2018-05-12T05:36:58.015Z,956.76
2018-05-12T05:37:58.034Z,956.72
2018-05-12T05:38:58.057Z,956.7
2018-05-12T05:39:58.080Z,956.72
2018-05-12T05:40:58.104Z,956.7
2018-05-12T05:41:58.127Z,956.71
2018-05-12T05:42:58.152Z,956.72
2018-05-12T05:43:58.177Z,956.72
2018-05-12T05:44:58.200Z,956.72
2018-05-12T05:45:58.225Z,956.73
2018-05-12T05:46:58.249Z,956.75
2018-05-12T05:47:58.274Z,956.77
2018-05-12T05:48:58.298Z,956.77
2018-05-12T05:49:58.322Z,956.79
2018-05-12T05:50:58.346Z,956.82
2018-05-12T05:51:58.371Z,956.78
2018-05-12T05:52:58.395Z,956.8
2018-05-12T05:53:58.418Z,956.82
2018-05-12T05:54:58.441Z,956.8
2018-05-12T05:55:58.471Z,956.82
2018-05-12T05:56:58.490Z,956.83
2018-05-12T05:57:58.513Z,956.83
2018-05-12T05:58:58.538Z,956.84
2018-05-12T05:59:58.565Z,956.82
2018-05-12T06:00:58.599Z,956.86
2018-05-12T06:01:58.608Z,956.86
2018-05-12T06:02:58.633Z,956.83
2018-05-12T06:03:58.656Z,956.85
2018-05-12T06:04:58.681Z,956.87
2018-05-12T06:05:58.704Z,956.83
2018-05-12T06:06:58.742Z,956.85
2018-05-12T06:07:58.953Z,956.85
2018-05-12T06:08:58.775Z,956.83
2018-05-12T06:09:58.803Z,956.85
2018-05-12T06:10:58.826Z,956.84
2018-05-12T06:11:58.848Z,956.81
2018-05-12T06:12:58.877Z,956.76
2018-05-12T06:13:58.896Z,956.81
2018-05-12T06:14:58.919Z,956.82
2018-05-12T06:15:58.943Z,956.75
2018-05-12T06:16:58.968Z,956.72
2018-05-12T06:17:59.091Z,956.75
2018-05-12T06:18:59.016Z,956.74
2018-05-12T06:19:59.040Z,956.7
2018-05-12T06:20:59.064Z,956.69
2018-05-12T06:21:59.089Z,956.72
2018-05-12T06:22:59.111Z,956.66
2018-05-12T06:23:59.136Z,956.66
2018-05-12T06:24:59.161Z,956.71
2018-05-12T06:25:59.185Z,956.72
2018-05-12T06:26:59.209Z,956.72
2018-05-12T06:27:59.305Z,956.73
2018-05-12T06:28:59.257Z,956.73
2018-05-12T06:29:59.280Z,956.77
2018-05-12T06:30:59.304Z,956.78
2018-05-12T06:31:59.328Z,956.79
2018-05-12T06:32:59.353Z,956.8
2018-05-12T06:33:59.378Z,956.81
2018-05-12T06:34:59.400Z,956.78
2018-05-12T06:35:59.431Z,956.8
2018-05-12T06:36:59.449Z,956.75
2018-05-12T06:37:59.473Z,956.73
2018-05-12T06:38:59.497Z,956.71
2018-05-12T06:39:59.532Z,956.78
2018-05-12T06:40:59.544Z,956.76
2018-05-12T06:41:59.568Z,956.8
2018-05-12T06:42:59.593Z,956.75
2018-05-12T06:43:59.616Z,956.76
2018-05-12T06:44:59.646Z,956.76
2018-05-12T06:45:59.663Z,956.75
2018-05-12T06:46:59.687Z,956.71
2018-05-12T06:47:59.709Z,956.73
2018-05-12T06:48:59.734Z,956.72
2018-05-12T06:49:59.759Z,956.73
2018-05-12T06:50:59.785Z,956.75
2018-05-12T06:51:59.807Z,956.71
2018-05-12T06:52:59.833Z,956.71
2018-05-12T06:53:59.857Z,956.7
2018-05-12T06:54:59.882Z,956.74
2018-05-12T06:55:59.907Z,956.67
2018-05-12T06:56:59.932Z,956.71
2018-05-12T06:57:59.956Z,956.65
2018-05-12T06:58:59.979Z,956.69
2018-05-12T07:00:00.009Z,956.68
2018-05-12T07:01:00.079Z,956.68
2018-05-12T07:02:00.055Z,956.7
2018-05-12T07:03:00.079Z,956.66
2018-05-12T07:04:00.104Z,956.7
2018-05-12T07:05:00.128Z,956.69
2018-05-12T07:06:00.152Z,956.69
2018-05-12T07:07:00.177Z,956.67
2018-05-12T07:08:00.202Z,956.7
2018-05-12T07:09:00.227Z,956.66
2018-05-12T07:10:00.251Z,956.65
2018-05-12T07:11:00.287Z,956.67
2018-05-12T07:12:00.302Z,956.64
2018-05-12T07:13:00.326Z,956.65
2018-05-12T07:14:00.351Z,956.66
2018-05-12T07:15:00.382Z,956.64
2018-05-12T07:16:00.451Z,956.67
2018-05-12T07:17:00.424Z,956.64
2018-05-12T07:18:00.451Z,956.63
2018-05-12T07:19:00.479Z,956.65
2018-05-12T07:20:00.500Z,956.62
2018-05-12T07:21:00.574Z,956.62
2018-05-12T07:22:00.549Z,956.62
2018-05-12T07:23:00.575Z,956.62
2018-05-12T07:24:00.604Z,956.64
2018-05-12T07:25:00.624Z,956.61
2018-05-12T07:26:00.652Z,956.63
2018-05-12T07:27:00.686Z,956.61
2018-05-12T07:28:00.702Z,956.62
2018-05-12T07:29:00.726Z,956.66
2018-05-12T07:30:00.751Z,956.59
2018-05-12T07:31:00.777Z,956.64
2018-05-12T07:32:00.805Z,956.64
2018-05-12T07:33:00.829Z,956.63
2018-05-12T07:34:00.855Z,956.59
2018-05-12T07:35:00.883Z,956.62
2018-05-12T07:36:00.955Z,956.62
2018-05-12T07:37:00.931Z,956.63
2018-05-12T07:38:00.962Z,956.64
2018-05-12T07:39:00.988Z,956.61
2018-05-12T07:40:01.013Z,956.63
2018-05-12T07:41:01.083Z,956.63
2018-05-12T07:42:01.058Z,956.67
2018-05-12T07:43:01.085Z,956.68
2018-05-12T07:44:01.110Z,956.69
2018-05-12T07:45:01.136Z,956.72
2018-05-12T07:46:01.161Z,956.66
2018-05-12T07:47:01.190Z,956.68
2018-05-12T07:48:01.214Z,956.68
2018-05-12T07:49:01.240Z,956.67
2018-05-12T07:50:01.266Z,956.65
2018-05-12T07:51:01.294Z,956.66
2018-05-12T07:52:01.326Z,956.64
2018-05-12T07:53:01.348Z,956.64
2018-05-12T07:54:01.371Z,956.65
2018-05-12T07:55:01.396Z,956.61
2018-05-12T07:56:01.473Z,956.63
2018-05-12T07:57:01.516Z,956.63
2018-05-12T07:58:01.474Z,956.67
2018-05-12T07:59:01.502Z,956.65
2018-05-12T08:00:01.528Z,956.62
2018-05-12T08:01:01.555Z,956.66
2018-05-12T08:02:01.579Z,956.62
2018-05-12T08:03:01.607Z,956.61
2018-05-12T08:04:01.633Z,956.61
2018-05-12T08:05:01.659Z,956.6
2018-05-12T08:06:01.687Z,956.55
2018-05-12T08:07:01.713Z,956.57
2018-05-12T08:08:01.738Z,956.59
2018-05-12T08:09:01.768Z,956.55
2018-05-12T08:10:01.791Z,956.57
2018-05-12T08:11:01.868Z,956.54
2018-05-12T08:12:01.842Z,956.57
2018-05-12T08:13:01.869Z,956.62
2018-05-12T08:14:01.897Z,956.59
2018-05-12T08:15:01.928Z,956.53
2018-05-12T08:16:01.949Z,956.5
2018-05-12T08:17:01.977Z,956.47
2018-05-12T08:18:02.002Z,956.51
2018-05-12T08:19:02.027Z,956.49
2018-05-12T08:20:02.053Z,956.48
2018-05-12T08:21:02.081Z,956.5
2018-05-12T08:22:02.106Z,956.45
2018-05-12T08:23:02.133Z,956.48
2018-05-12T08:24:02.159Z,956.46
2018-05-12T08:25:02.192Z,956.48
2018-05-12T08:26:02.297Z,956.52
2018-05-12T08:27:02.244Z,956.46
2018-05-12T08:28:02.269Z,956.45
2018-05-12T08:29:02.299Z,956.4
2018-05-12T08:30:02.321Z,956.44
2018-05-12T08:31:02.399Z,956.45
2018-05-12T08:32:02.376Z,956.42
2018-05-12T08:33:02.402Z,956.41
2018-05-12T08:34:02.429Z,956.4
2018-05-12T08:35:02.458Z,956.4
2018-05-12T08:36:02.494Z,956.38
2018-05-12T08:37:02.509Z,956.37
2018-05-12T08:38:02.539Z,956.38
2018-05-12T08:39:02.565Z,956.33
2018-05-12T08:40:02.598Z,956.31
2018-05-12T08:41:02.617Z,956.33
2018-05-12T08:42:02.642Z,956.29
2018-05-12T08:43:02.671Z,956.27
2018-05-12T08:44:02.699Z,956.24
2018-05-12T08:45:02.725Z,956.22
2018-05-12T08:46:02.802Z,956.2
2018-05-12T08:47:02.779Z,956.21
2018-05-12T08:48:02.807Z,956.23
2018-05-12T08:49:02.833Z,956.24
2018-05-12T08:50:02.860Z,956.22
2018-05-12T08:51:02.887Z,956.19
2018-05-12T08:52:02.914Z,956.22
2018-05-12T08:53:02.942Z,956.23
2018-05-12T08:54:02.970Z,956.21
2018-05-12T08:55:02.997Z,956.21
2018-05-12T08:56:03.039Z,956.19
2018-05-12T08:57:03.053Z,956.2
2018-05-12T08:58:03.085Z,956.25
2018-05-12T08:59:03.107Z,956.26
2018-05-12T09:00:03.134Z,956.25
2018-05-12T09:01:03.211Z,956.22
2018-05-12T09:02:03.187Z,956.24
2018-05-12T09:03:03.215Z,956.23
2018-05-12T09:04:03.241Z,956.23
2018-05-12T09:05:03.270Z,956.24
2018-05-12T09:06:03.300Z,956.24
2018-05-12T09:07:03.327Z,956.17
2018-05-12T09:08:03.353Z,956.21
2018-05-12T09:09:03.383Z,956.17
2018-05-12T09:10:03.410Z,956.16
2018-05-12T09:11:03.441Z,956.16
2018-05-12T09:12:03.466Z,956.14
2018-05-12T09:13:03.493Z,956.18
2018-05-12T09:14:03.520Z,956.17
2018-05-12T09:15:03.549Z,956.16
2018-05-12T09:16:03.627Z,956.17
2018-05-12T09:17:03.606Z,956.15
2018-05-12T09:18:03.632Z,956.13
2018-05-12T09:19:03.660Z,956.11
2018-05-12T09:20:03.689Z,956.12
2018-05-12T09:21:03.718Z,956.17
2018-05-12T09:22:03.745Z,956.17
2018-05-12T09:23:03.773Z,956.14
2018-05-12T09:24:03.802Z,956.15
2018-05-12T09:25:03.828Z,956.14
2018-05-12T09:26:03.855Z,956.1
2018-05-12T09:27:03.890Z,956.08
2018-05-12T09:28:03.913Z,956.06
2018-05-12T09:29:03.941Z,956.07
2018-05-12T09:30:03.971Z,956.09
2018-05-12T09:31:04.054Z,956.07
2018-05-12T09:32:04.027Z,956.07
2018-05-12T09:33:04.056Z,956.04
2018-05-12T09:34:04.084Z,956.01
2018-05-12T09:35:04.113Z,956
2018-05-12T09:36:04.140Z,955.99
2018-05-12T09:37:04.168Z,956
2018-05-12T09:38:04.201Z,955.96
2018-05-12T09:39:04.227Z,955.94
2018-05-12T09:40:04.252Z,955.95
2018-05-12T09:41:04.282Z,956.02
2018-05-12T09:42:04.311Z,956.01
2018-05-12T09:43:04.344Z,956.05
2018-05-12T09:44:04.368Z,956.03
2018-05-12T09:45:04.398Z,956.01
2018-05-12T09:46:04.478Z,956
2018-05-12T09:47:04.454Z,956.05
2018-05-12T09:48:04.484Z,956.01
2018-05-12T09:49:04.513Z,955.97
2018-05-12T09:50:04.543Z,955.93
2018-05-12T09:51:04.578Z,955.96
2018-05-12T09:52:04.601Z,955.9
2018-05-12T09:53:04.633Z,955.92
2018-05-12T09:54:04.660Z,955.9
2018-05-12T09:55:04.690Z,955.9
2018-05-12T09:56:04.818Z,955.88
2018-05-12T09:57:04.748Z,955.91
2018-05-12T09:58:04.776Z,955.88
2018-05-12T09:59:04.832Z,955.8
2018-05-12T10:00:04.837Z,955.86
2018-05-12T10:01:04.917Z,955.87
2018-05-12T10:02:04.895Z,955.87
2018-05-12T10:03:04.925Z,955.91
2018-05-12T10:04:04.953Z,955.91
2018-05-12T10:05:04.982Z,955.85
2018-05-12T10:06:05.016Z,955.91
2018-05-12T10:07:05.052Z,955.81
2018-05-12T10:08:05.073Z,955.78
2018-05-12T10:09:05.105Z,955.82
2018-05-12T10:10:05.136Z,955.78
2018-05-12T10:11:05.315Z,955.83
2018-05-12T10:12:05.199Z,955.83
2018-05-12T10:13:05.229Z,955.81
2018-05-12T10:14:05.266Z,955.78
2018-05-12T10:15:05.297Z,955.77
2018-05-12T10:16:05.374Z,955.79
2018-05-12T10:17:05.351Z,955.77
2018-05-12T10:18:05.382Z,955.75
2018-05-12T10:19:05.415Z,955.72
2018-05-12T10:20:05.445Z,955.73
2018-05-12T10:21:05.477Z,955.71
2018-05-12T10:22:05.508Z,955.69
2018-05-12T10:23:05.539Z,955.72
2018-05-12T10:24:05.570Z,955.74
2018-05-12T10:25:05.601Z,955.62
2018-05-12T10:26:05.633Z,955.74
2018-05-12T10:27:05.664Z,955.71
2018-05-12T10:28:05.696Z,955.73
2018-05-12T10:29:05.729Z,955.73
2018-05-12T10:30:05.761Z,955.7
2018-05-12T10:31:05.842Z,955.7
2018-05-12T10:32:05.843Z,955.69
2018-05-12T10:33:05.859Z,955.64
2018-05-12T10:34:05.893Z,955.62
2018-05-12T10:35:05.924Z,955.63
2018-05-12T10:36:05.956Z,955.56
2018-05-12T10:37:05.991Z,955.6
2018-05-12T10:38:06.027Z,955.6
2018-05-12T10:39:06.054Z,955.56
2018-05-12T10:40:06.088Z,955.58
2018-05-12T10:41:06.119Z,955.55
2018-05-12T10:42:06.153Z,955.51
2018-05-12T10:43:06.187Z,955.51
2018-05-12T10:44:06.220Z,955.56
2018-05-12T10:45:06.254Z,955.52
2018-05-12T10:46:06.338Z,955.53
2018-05-12T10:47:06.322Z,955.52
2018-05-12T10:48:06.352Z,955.55
2018-05-12T10:49:06.386Z,955.55
2018-05-12T10:50:06.420Z,955.48
2018-05-12T10:51:06.453Z,955.51
2018-05-12T10:52:06.489Z,955.54
2018-05-12T10:53:06.520Z,955.52
2018-05-12T10:54:06.557Z,955.52
2018-05-12T10:55:06.591Z,955.5
2018-05-12T10:56:06.626Z,955.49
2018-05-12T10:57:06.666Z,955.41
2018-05-12T10:58:06.694Z,955.43
2018-05-12T10:59:06.728Z,955.35
2018-05-12T11:00:06.763Z,955.36
2018-05-12T11:01:06.847Z,955.38
2018-05-12T11:02:06.832Z,955.38
2018-05-12T11:03:06.868Z,955.34
2018-05-12T11:04:06.902Z,955.32
2018-05-12T11:05:06.935Z,955.29
2018-05-12T11:06:06.971Z,955.26
2018-05-12T11:07:07.004Z,955.29
2018-05-12T11:08:07.037Z,955.25
2018-05-12T11:09:07.073Z,955.26
2018-05-12T11:10:07.109Z,955.29
2018-05-12T11:11:07.144Z,955.25
2018-05-12T11:12:07.183Z,955.28
2018-05-12T11:13:07.215Z,955.23
2018-05-12T11:14:07.254Z,955.19
2018-05-12T11:15:07.284Z,955.22
2018-05-12T11:16:07.587Z,955.22
2018-05-12T11:17:07.354Z,955.21
2018-05-12T11:18:07.390Z,955.19
2018-05-12T11:19:07.426Z,955.19
2018-05-12T11:20:07.468Z,955.18
2018-05-12T11:21:07.496Z,955.19
2018-05-12T11:22:07.531Z,955.14
2018-05-12T11:23:07.566Z,955.21
2018-05-12T11:24:07.601Z,955.15
2018-05-12T11:25:07.637Z,955.1
2018-05-12T11:26:07.772Z,955.09
2018-05-12T11:27:07.709Z,955.09
2018-05-12T11:28:07.744Z,955.06
2018-05-12T11:29:07.779Z,955.05
2018-05-12T11:30:07.813Z,955.06
2018-05-12T11:31:07.901Z,955.05
2018-05-12T11:32:07.972Z,955.01
2018-05-12T11:33:07.923Z,954.96
2018-05-12T11:34:07.959Z,954.99
2018-05-12T11:35:07.995Z,955
2018-05-12T11:36:08.031Z,954.96
2018-05-12T11:37:08.067Z,954.98
2018-05-12T11:38:08.104Z,954.95
2018-05-12T11:39:08.141Z,954.97
2018-05-12T11:40:08.192Z,954.95
2018-05-12T11:41:08.211Z,954.96
2018-05-12T11:42:08.248Z,954.95
2018-05-12T11:43:08.284Z,954.94
2018-05-12T11:44:08.318Z,954.94
2018-05-12T11:45:08.355Z,954.92
2018-05-12T11:46:08.444Z,954.89
2018-05-12T11:47:08.431Z,954.9
2018-05-12T11:48:08.466Z,954.9
2018-05-12T11:49:08.502Z,954.86
2018-05-12T11:50:08.587Z,954.86
2018-05-12T11:51:08.582Z,954.86
2018-05-12T11:52:08.613Z,954.84
2018-05-12T11:53:08.650Z,954.85
2018-05-12T11:54:08.722Z,954.87
2018-05-12T11:55:08.725Z,954.88
2018-05-12T11:56:08.760Z,954.84
2018-05-12T11:57:08.802Z,954.83
2018-05-12T11:58:08.835Z,954.79
2018-05-12T11:59:08.872Z,954.81
2018-05-12T12:00:08.911Z,954.8
2018-05-12T12:01:08.996Z,954.77
2018-05-12T12:02:08.983Z,954.8
2018-05-12T12:03:09.018Z,954.8
2018-05-12T12:04:09.060Z,954.76
2018-05-12T12:05:09.094Z,954.79
2018-05-12T12:06:09.150Z,954.75
2018-05-12T12:07:09.168Z,954.73
2018-05-12T12:08:09.207Z,954.65
2018-05-12T12:09:09.245Z,954.68
2018-05-12T12:10:09.281Z,954.62
2018-05-12T12:11:09.320Z,954.64
2018-05-12T12:12:09.356Z,954.61
2018-05-12T12:13:09.394Z,954.64
2018-05-12T12:14:09.431Z,954.62
2018-05-12T12:15:09.470Z,954.61
2018-05-12T12:16:09.558Z,954.62
2018-05-12T12:17:09.544Z,954.63
2018-05-12T12:18:09.581Z,954.68
2018-05-12T12:19:09.621Z,954.63
2018-05-12T12:20:09.659Z,954.61
2018-05-12T12:21:09.694Z,954.64
2018-05-12T12:22:09.738Z,954.62
2018-05-12T12:23:09.771Z,954.66
2018-05-12T12:24:09.808Z,954.63
2018-05-12T12:25:09.846Z,954.67
2018-05-12T12:26:09.886Z,954.64
2018-05-12T12:27:09.952Z,954.64
2018-05-12T12:28:09.960Z,954.65
2018-05-12T12:29:09.999Z,954.58
2018-05-12T12:30:10.038Z,954.48
2018-05-12T12:31:10.125Z,954.49
2018-05-12T12:32:10.117Z,954.45